sensor_id;sensor_type;location;lat;lon;timestamp;P1;durP1;ratioP1;P2;durP2;ratioP2
68229;SDS011;55048;52.220;5.160;2023-05-19T00:02:06;6.53;;;1.50;;
68229;SDS011;55048;52.220;5.160;2023-05-19T00:04:33;5.72;;;1.42;;
68229;SDS011;55048;52.220;5.160;2023-05-19T00:06:59;6.55;;;1.50;;
68229;SDS011;55048;52.220;5.160;2023-05-19T00:09:25;7.90;;;1.50;;
68229;SDS011;55048;52.220;5.160;2023-05-19T00:11:51;6.57;;;1.17;;
68229;SDS011;55048;52.220;5.160;2023-05-19T00:14:17;7.38;;;1.67;;
68229;SDS011;55048;52.220;5.160;2023-05-19T00:17:00;9.88;;;1.42;;
68229;SDS011;55048;52.220;5.160;2023-05-19T00:19:26;6.75;;;1.63;;
68229;SDS011;55048;52.220;5.160;2023-05-19T00:21:56;10.75;;;1.60;;
68229;SDS011;55048;52.220;5.160;2023-05-19T00:24:23;7.60;;;1.67;;
68229;SDS011;55048;52.220;5.160;2023-05-19T00:26:48;6.20;;;1.60;;
68229;SDS011;55048;52.220;5.160;2023-05-19T00:29:14;7.50;;;1.55;;
68229;SDS011;55048;52.220;5.160;2023-05-19T00:31:43;8.35;;;1.30;;
68229;SDS011;55048;52.220;5.160;2023-05-19T00:34:10;7.75;;;1.38;;
68229;SDS011;55048;52.220;5.160;2023-05-19T00:36:36;7.43;;;1.42;;
68229;SDS011;55048;52.220;5.160;2023-05-19T00:39:02;5.72;;;1.27;;
68229;SDS011;55048;52.220;5.160;2023-05-19T00:41:28;7.50;;;1.73;;
68229;SDS011;55048;52.220;5.160;2023-05-19T00:43:53;14.52;;;1.70;;
68229;SDS011;55048;52.220;5.160;2023-05-19T00:46:19;8.27;;;1.60;;
68229;SDS011;55048;52.220;5.160;2023-05-19T00:48:47;6.97;;;1.70;;
68229;SDS011;55048;52.220;5.160;2023-05-19T00:51:13;6.18;;;1.60;;
68229;SDS011;55048;52.220;5.160;2023-05-19T00:53:40;6.45;;;1.63;;
68229;SDS011;55048;52.220;5.160;2023-05-19T00:56:08;10.23;;;2.53;;
68229;SDS011;55048;52.220;5.160;2023-05-19T00:58:33;6.90;;;1.42;;
68229;SDS011;55048;52.220;5.160;2023-05-19T01:01:02;10.75;;;1.67;;
68229;SDS011;55048;52.220;5.160;2023-05-19T01:03:28;9.38;;;1.73;;
68229;SDS011;55048;52.220;5.160;2023-05-19T01:06:03;16.83;;;1.90;;
68229;SDS011;55048;52.220;5.160;2023-05-19T01:08:30;7.18;;;1.80;;
68229;SDS011;55048;52.220;5.160;2023-05-19T01:10:56;6.57;;;1.75;;
68229;SDS011;55048;52.220;5.160;2023-05-19T01:13:22;8.32;;;2.38;;
68229;SDS011;55048;52.220;5.160;2023-05-19T01:32:08;7.32;;;1.48;;
68229;SDS011;55048;52.220;5.160;2023-05-19T01:34:38;16.65;;;2.28;;
68229;SDS011;55048;52.220;5.160;2023-05-19T01:37:07;7.72;;;1.90;;
68229;SDS011;55048;52.220;5.160;2023-05-19T01:39:33;5.35;;;1.50;;
68229;SDS011;55048;52.220;5.160;2023-05-19T01:42:00;9.25;;;2.22;;
68229;SDS011;55048;52.220;5.160;2023-05-19T01:44:26;5.55;;;1.70;;
68229;SDS011;55048;52.220;5.160;2023-05-19T01:46:53;13.38;;;1.70;;
68229;SDS011;55048;52.220;5.160;2023-05-19T01:49:19;6.05;;;1.80;;
68229;SDS011;55048;52.220;5.160;2023-05-19T01:51:44;12.23;;;2.25;;
68229;SDS011;55048;52.220;5.160;2023-05-19T01:54:10;8.85;;;2.10;;
68229;SDS011;55048;52.220;5.160;2023-05-19T01:56:59;10.75;;;2.05;;
68229;SDS011;55048;52.220;5.160;2023-05-19T01:59:36;9.52;;;1.95;;
68229;SDS011;55048;52.220;5.160;2023-05-19T02:05:01;10.02;;;2.40;;
68229;SDS011;55048;52.220;5.160;2023-05-19T02:10:26;12.40;;;2.10;;
68229;SDS011;55048;52.220;5.160;2023-05-19T02:12:55;9.15;;;2.40;;
68229;SDS011;55048;52.220;5.160;2023-05-19T02:15:25;11.32;;;2.38;;
68229;SDS011;55048;52.220;5.160;2023-05-19T02:17:54;12.20;;;2.47;;
68229;SDS011;55048;52.220;5.160;2023-05-19T02:20:24;8.55;;;2.70;;
68229;SDS011;55048;52.220;5.160;2023-05-19T02:22:50;8.65;;;2.15;;
68229;SDS011;55048;52.220;5.160;2023-05-19T02:25:18;12.65;;;2.67;;
68229;SDS011;55048;52.220;5.160;2023-05-19T02:27:45;10.02;;;2.58;;
68229;SDS011;55048;52.220;5.160;2023-05-19T02:30:13;8.05;;;2.38;;
68229;SDS011;55048;52.220;5.160;2023-05-19T02:32:41;10.32;;;2.72;;
68229;SDS011;55048;52.220;5.160;2023-05-19T02:35:11;12.17;;;3.03;;
68229;SDS011;55048;52.220;5.160;2023-05-19T02:37:38;9.40;;;2.53;;
68229;SDS011;55048;52.220;5.160;2023-05-19T02:40:04;10.68;;;2.65;;
68229;SDS011;55048;52.220;5.160;2023-05-19T02:42:30;14.40;;;3.60;;
68229;SDS011;55048;52.220;5.160;2023-05-19T02:44:56;10.18;;;2.80;;
68229;SDS011;55048;52.220;5.160;2023-05-19T02:47:24;13.75;;;2.85;;
68229;SDS011;55048;52.220;5.160;2023-05-19T02:49:51;7.03;;;3.00;;
68229;SDS011;55048;52.220;5.160;2023-05-19T02:54:52;12.52;;;3.03;;
68229;SDS011;55048;52.220;5.160;2023-05-19T02:57:18;12.82;;;2.67;;
68229;SDS011;55048;52.220;5.160;2023-05-19T02:59:43;12.63;;;2.78;;
68229;SDS011;55048;52.220;5.160;2023-05-19T03:02:09;14.95;;;3.83;;
68229;SDS011;55048;52.220;5.160;2023-05-19T03:04:34;12.57;;;2.70;;
68229;SDS011;55048;52.220;5.160;2023-05-19T03:07:06;9.50;;;2.72;;
68229;SDS011;55048;52.220;5.160;2023-05-19T03:09:33;9.95;;;3.15;;
68229;SDS011;55048;52.220;5.160;2023-05-19T03:12:00;14.32;;;3.22;;
68229;SDS011;55048;52.220;5.160;2023-05-19T03:14:28;14.65;;;3.42;;
68229;SDS011;55048;52.220;5.160;2023-05-19T03:16:54;12.00;;;3.20;;
68229;SDS011;55048;52.220;5.160;2023-05-19T03:19:20;18.70;;;3.63;;
68229;SDS011;55048;52.220;5.160;2023-05-19T03:21:46;8.18;;;3.10;;
68229;SDS011;55048;52.220;5.160;2023-05-19T03:24:11;13.52;;;3.30;;
68229;SDS011;55048;52.220;5.160;2023-05-19T03:26:37;9.50;;;3.28;;
68229;SDS011;55048;52.220;5.160;2023-05-19T03:29:03;6.95;;;3.15;;
68229;SDS011;55048;52.220;5.160;2023-05-19T03:31:30;11.73;;;3.53;;
68229;SDS011;55048;52.220;5.160;2023-05-19T03:33:57;15.35;;;3.55;;
68229;SDS011;55048;52.220;5.160;2023-05-19T03:36:23;12.40;;;3.38;;
68229;SDS011;55048;52.220;5.160;2023-05-19T03:38:49;11.73;;;3.38;;
68229;SDS011;55048;52.220;5.160;2023-05-19T03:41:14;12.27;;;4.03;;
68229;SDS011;55048;52.220;5.160;2023-05-19T03:43:40;10.30;;;3.65;;
68229;SDS011;55048;52.220;5.160;2023-05-19T03:46:06;17.95;;;4.15;;
68229;SDS011;55048;52.220;5.160;2023-05-19T03:48:55;18.35;;;3.90;;
68229;SDS011;55048;52.220;5.160;2023-05-19T03:51:38;11.98;;;4.03;;
68229;SDS011;55048;52.220;5.160;2023-05-19T03:54:17;14.07;;;4.25;;
68229;SDS011;55048;52.220;5.160;2023-05-19T03:56:43;11.63;;;4.13;;
68229;SDS011;55048;52.220;5.160;2023-05-19T03:59:08;15.07;;;4.63;;
68229;SDS011;55048;52.220;5.160;2023-05-19T04:01:37;11.95;;;4.13;;
68229;SDS011;55048;52.220;5.160;2023-05-19T04:04:03;17.33;;;4.28;;
68229;SDS011;55048;52.220;5.160;2023-05-19T04:06:28;8.75;;;3.47;;
68229;SDS011;55048;52.220;5.160;2023-05-19T04:08:55;10.55;;;3.58;;
68229;SDS011;55048;52.220;5.160;2023-05-19T04:11:21;14.63;;;4.40;;
68229;SDS011;55048;52.220;5.160;2023-05-19T04:13:48;8.45;;;3.55;;
68229;SDS011;55048;52.220;5.160;2023-05-19T04:16:14;9.13;;;3.60;;
68229;SDS011;55048;52.220;5.160;2023-05-19T04:18:43;9.95;;;3.78;;
68229;SDS011;55048;52.220;5.160;2023-05-19T04:23:36;12.38;;;3.72;;
68229;SDS011;55048;52.220;5.160;2023-05-19T04:26:03;8.68;;;3.55;;
68229;SDS011;55048;52.220;5.160;2023-05-19T04:28:31;9.93;;;4.15;;
68229;SDS011;55048;52.220;5.160;2023-05-19T04:30:59;12.05;;;4.15;;
68229;SDS011;55048;52.220;5.160;2023-05-19T04:33:25;12.30;;;4.32;;
68229;SDS011;55048;52.220;5.160;2023-05-19T04:35:53;15.63;;;4.07;;
68229;SDS011;55048;52.220;5.160;2023-05-19T04:38:19;13.18;;;4.43;;
68229;SDS011;55048;52.220;5.160;2023-05-19T04:40:47;12.82;;;4.28;;
68229;SDS011;55048;52.220;5.160;2023-05-19T04:43:14;8.23;;;4.32;;
68229;SDS011;55048;52.220;5.160;2023-05-19T04:45:40;11.32;;;4.72;;
68229;SDS011;55048;52.220;5.160;2023-05-19T04:48:08;14.23;;;4.40;;
68229;SDS011;55048;52.220;5.160;2023-05-19T04:50:34;15.73;;;4.90;;
68229;SDS011;55048;52.220;5.160;2023-05-19T04:53:02;11.63;;;4.68;;
68229;SDS011;55048;52.220;5.160;2023-05-19T04:55:28;9.35;;;4.80;;
68229;SDS011;55048;52.220;5.160;2023-05-19T04:57:53;13.07;;;4.25;;
68229;SDS011;55048;52.220;5.160;2023-05-19T05:00:20;14.45;;;4.88;;
68229;SDS011;55048;52.220;5.160;2023-05-19T05:03:01;13.75;;;4.50;;
68229;SDS011;55048;52.220;5.160;2023-05-19T05:05:30;12.48;;;4.78;;
68229;SDS011;55048;52.220;5.160;2023-05-19T05:07:56;16.05;;;4.93;;
68229;SDS011;55048;52.220;5.160;2023-05-19T05:10:25;13.20;;;5.13;;
68229;SDS011;55048;52.220;5.160;2023-05-19T05:12:52;14.27;;;5.88;;
68229;SDS011;55048;52.220;5.160;2023-05-19T05:15:18;14.13;;;5.70;;
68229;SDS011;55048;52.220;5.160;2023-05-19T05:17:47;12.35;;;5.78;;
68229;SDS011;55048;52.220;5.160;2023-05-19T05:20:14;20.02;;;5.80;;
68229;SDS011;55048;52.220;5.160;2023-05-19T05:22:40;14.00;;;6.30;;
68229;SDS011;55048;52.220;5.160;2023-05-19T05:25:11;19.75;;;5.70;;
68229;SDS011;55048;52.220;5.160;2023-05-19T05:27:37;14.20;;;6.15;;
68229;SDS011;55048;52.220;5.160;2023-05-19T05:30:04;17.13;;;6.78;;
68229;SDS011;55048;52.220;5.160;2023-05-19T05:32:33;18.92;;;6.25;;
68229;SDS011;55048;52.220;5.160;2023-05-19T05:35:01;19.63;;;6.18;;
68229;SDS011;55048;52.220;5.160;2023-05-19T05:37:29;19.98;;;8.00;;
68229;SDS011;55048;52.220;5.160;2023-05-19T05:39:55;14.10;;;7.28;;
68229;SDS011;55048;52.220;5.160;2023-05-19T05:42:21;14.43;;;5.90;;
68229;SDS011;55048;52.220;5.160;2023-05-19T05:44:48;15.40;;;6.80;;
68229;SDS011;55048;52.220;5.160;2023-05-19T05:47:14;18.75;;;6.57;;
68229;SDS011;55048;52.220;5.160;2023-05-19T05:49:39;17.17;;;5.55;;
68229;SDS011;55048;52.220;5.160;2023-05-19T05:52:09;15.25;;;5.82;;
68229;SDS011;55048;52.220;5.160;2023-05-19T05:54:42;12.52;;;6.25;;
68229;SDS011;55048;52.220;5.160;2023-05-19T05:57:08;13.52;;;5.72;;
68229;SDS011;55048;52.220;5.160;2023-05-19T05:59:34;13.68;;;5.38;;
68229;SDS011;55048;52.220;5.160;2023-05-19T06:02:01;20.15;;;5.25;;
68229;SDS011;55048;52.220;5.160;2023-05-19T06:04:34;17.90;;;4.63;;
68229;SDS011;55048;52.220;5.160;2023-05-19T06:06:59;7.75;;;3.33;;
68229;SDS011;55048;52.220;5.160;2023-05-19T06:09:26;10.13;;;4.30;;
68229;SDS011;55048;52.220;5.160;2023-05-19T06:11:53;12.77;;;4.75;;
68229;SDS011;55048;52.220;5.160;2023-05-19T06:14:19;12.32;;;4.78;;
68229;SDS011;55048;52.220;5.160;2023-05-19T06:17:03;11.27;;;3.72;;
68229;SDS011;55048;52.220;5.160;2023-05-19T06:19:29;8.55;;;4.03;;
68229;SDS011;55048;52.220;5.160;2023-05-19T06:21:54;10.13;;;3.60;;
68229;SDS011;55048;52.220;5.160;2023-05-19T06:24:20;8.65;;;3.45;;
68229;SDS011;55048;52.220;5.160;2023-05-19T06:26:46;4.53;;;2.63;;
68229;SDS011;55048;52.220;5.160;2023-05-19T06:29:13;7.32;;;3.63;;
68229;SDS011;55048;52.220;5.160;2023-05-19T06:31:38;14.27;;;3.90;;
68229;SDS011;55048;52.220;5.160;2023-05-19T06:36:37;6.32;;;2.90;;
68229;SDS011;55048;52.220;5.160;2023-05-19T06:39:04;15.48;;;3.65;;
68229;SDS011;55048;52.220;5.160;2023-05-19T06:41:31;11.00;;;2.92;;
68229;SDS011;55048;52.220;5.160;2023-05-19T06:43:57;6.78;;;2.92;;
68229;SDS011;55048;52.220;5.160;2023-05-19T06:46:22;6.68;;;2.75;;
68229;SDS011;55048;52.220;5.160;2023-05-19T06:48:48;10.65;;;3.00;;
68229;SDS011;55048;52.220;5.160;2023-05-19T06:51:16;7.53;;;2.65;;
68229;SDS011;55048;52.220;5.160;2023-05-19T06:53:47;14.80;;;2.97;;
68229;SDS011;55048;52.220;5.160;2023-05-19T06:56:13;10.07;;;2.42;;
68229;SDS011;55048;52.220;5.160;2023-05-19T06:58:39;8.93;;;2.35;;
68229;SDS011;55048;52.220;5.160;2023-05-19T07:01:05;10.70;;;2.80;;
68229;SDS011;55048;52.220;5.160;2023-05-19T07:03:37;11.73;;;3.22;;
68229;SDS011;55048;52.220;5.160;2023-05-19T07:06:02;7.07;;;2.58;;
68229;SDS011;55048;52.220;5.160;2023-05-19T07:08:29;9.52;;;2.35;;
68229;SDS011;55048;52.220;5.160;2023-05-19T07:10:58;7.88;;;2.42;;
68229;SDS011;55048;52.220;5.160;2023-05-19T07:13:23;12.88;;;3.60;;
68229;SDS011;55048;52.220;5.160;2023-05-19T07:15:49;11.48;;;3.08;;
68229;SDS011;55048;52.220;5.160;2023-05-19T07:18:16;10.85;;;2.70;;
68229;SDS011;55048;52.220;5.160;2023-05-19T07:20:42;11.75;;;2.60;;
68229;SDS011;55048;52.220;5.160;2023-05-19T07:23:07;6.00;;;2.38;;
68229;SDS011;55048;52.220;5.160;2023-05-19T07:25:34;9.48;;;2.58;;
68229;SDS011;55048;52.220;5.160;2023-05-19T07:27:59;13.43;;;2.45;;
68229;SDS011;55048;52.220;5.160;2023-05-19T07:30:26;6.50;;;2.05;;
68229;SDS011;55048;52.220;5.160;2023-05-19T07:32:52;11.23;;;2.30;;
68229;SDS011;55048;52.220;5.160;2023-05-19T07:35:18;12.60;;;2.08;;
68229;SDS011;55048;52.220;5.160;2023-05-19T07:37:44;7.13;;;2.20;;
68229;SDS011;55048;52.220;5.160;2023-05-19T07:40:10;5.72;;;2.00;;
68229;SDS011;55048;52.220;5.160;2023-05-19T07:42:35;8.75;;;2.03;;
68229;SDS011;55048;52.220;5.160;2023-05-19T07:45:01;10.23;;;2.53;;
68229;SDS011;55048;52.220;5.160;2023-05-19T07:47:28;9.73;;;1.70;;
68229;SDS011;55048;52.220;5.160;2023-05-19T07:49:55;7.93;;;1.95;;
68229;SDS011;55048;52.220;5.160;2023-05-19T07:52:20;5.40;;;1.73;;
68229;SDS011;55048;52.220;5.160;2023-05-19T07:54:46;4.72;;;1.60;;
68229;SDS011;55048;52.220;5.160;2023-05-19T07:57:11;11.25;;;2.08;;
68229;SDS011;55048;52.220;5.160;2023-05-19T07:59:38;6.45;;;2.22;;
68229;SDS011;55048;52.220;5.160;2023-05-19T08:02:04;7.97;;;1.70;;
68229;SDS011;55048;52.220;5.160;2023-05-19T08:04:29;7.43;;;1.50;;
68229;SDS011;55048;52.220;5.160;2023-05-19T08:06:55;7.75;;;1.80;;
68229;SDS011;55048;52.220;5.160;2023-05-19T08:09:20;4.60;;;1.65;;
68229;SDS011;55048;52.220;5.160;2023-05-19T08:11:45;5.93;;;1.60;;
68229;SDS011;55048;52.220;5.160;2023-05-19T08:14:11;8.85;;;1.08;;
68229;SDS011;55048;52.220;5.160;2023-05-19T08:16:36;8.63;;;1.45;;
68229;SDS011;55048;52.220;5.160;2023-05-19T08:19:02;7.47;;;1.30;;
68229;SDS011;55048;52.220;5.160;2023-05-19T08:21:29;13.10;;;2.00;;
68229;SDS011;55048;52.220;5.160;2023-05-19T08:23:58;6.00;;;1.15;;
68229;SDS011;55048;52.220;5.160;2023-05-19T08:26:25;4.68;;;1.30;;
68229;SDS011;55048;52.220;5.160;2023-05-19T08:28:51;5.97;;;1.30;;
68229;SDS011;55048;52.220;5.160;2023-05-19T08:31:16;5.65;;;1.10;;
68229;SDS011;55048;52.220;5.160;2023-05-19T08:33:42;10.10;;;1.42;;
68229;SDS011;55048;52.220;5.160;2023-05-19T08:36:08;7.32;;;1.30;;
68229;SDS011;55048;52.220;5.160;2023-05-19T08:38:34;5.80;;;1.20;;
68229;SDS011;55048;52.220;5.160;2023-05-19T08:40:59;8.68;;;2.20;;
68229;SDS011;55048;52.220;5.160;2023-05-19T08:43:25;4.90;;;1.02;;
68229;SDS011;55048;52.220;5.160;2023-05-19T08:45:51;8.35;;;1.10;;
68229;SDS011;55048;52.220;5.160;2023-05-19T08:48:18;8.77;;;1.40;;
68229;SDS011;55048;52.220;5.160;2023-05-19T08:50:56;6.53;;;1.00;;
68229;SDS011;55048;52.220;5.160;2023-05-19T08:53:26;5.60;;;1.60;;
68229;SDS011;55048;52.220;5.160;2023-05-19T08:58:54;8.15;;;1.60;;
68229;SDS011;55048;52.220;5.160;2023-05-19T09:01:24;7.43;;;1.05;;
68229;SDS011;55048;52.220;5.160;2023-05-19T09:03:50;5.10;;;1.10;;
68229;SDS011;55048;52.220;5.160;2023-05-19T09:06:16;5.10;;;1.13;;
68229;SDS011;55048;52.220;5.160;2023-05-19T09:08:42;7.10;;;1.30;;
68229;SDS011;55048;52.220;5.160;2023-05-19T09:11:08;11.43;;;1.17;;
68229;SDS011;55048;52.220;5.160;2023-05-19T09:13:34;9.40;;;1.20;;
68229;SDS011;55048;52.220;5.160;2023-05-19T09:16:00;7.10;;;1.30;;
68229;SDS011;55048;52.220;5.160;2023-05-19T09:18:27;4.60;;;1.08;;
68229;SDS011;55048;52.220;5.160;2023-05-19T09:20:59;7.20;;;1.02;;
68229;SDS011;55048;52.220;5.160;2023-05-19T09:23:27;7.47;;;1.58;;
68229;SDS011;55048;52.220;5.160;2023-05-19T09:25:53;7.00;;;1.25;;
68229;SDS011;55048;52.220;5.160;2023-05-19T09:28:26;10.57;;;1.20;;
68229;SDS011;55048;52.220;5.160;2023-05-19T09:31:07;7.57;;;1.40;;
68229;SDS011;55048;52.220;5.160;2023-05-19T09:33:42;6.20;;;1.13;;
68229;SDS011;55048;52.220;5.160;2023-05-19T09:36:08;7.82;;;1.50;;
68229;SDS011;55048;52.220;5.160;2023-05-19T09:38:35;10.13;;;1.60;;
68229;SDS011;55048;52.220;5.160;2023-05-19T09:41:01;5.13;;;1.10;;
68229;SDS011;55048;52.220;5.160;2023-05-19T09:43:30;5.97;;;1.15;;
68229;SDS011;55048;52.220;5.160;2023-05-19T09:45:58;5.47;;;1.13;;
68229;SDS011;55048;52.220;5.160;2023-05-19T09:48:25;6.10;;;1.10;;
68229;SDS011;55048;52.220;5.160;2023-05-19T09:50:52;6.22;;;1.00;;
68229;SDS011;55048;52.220;5.160;2023-05-19T09:53:18;6.93;;;1.10;;
68229;SDS011;55048;52.220;5.160;2023-05-19T09:55:45;6.93;;;1.00;;
68229;SDS011;55048;52.220;5.160;2023-05-19T09:58:15;5.82;;;0.90;;
68229;SDS011;55048;52.220;5.160;2023-05-19T10:00:42;4.90;;;1.10;;
68229;SDS011;55048;52.220;5.160;2023-05-19T10:03:08;7.18;;;1.10;;
68229;SDS011;55048;52.220;5.160;2023-05-19T10:05:35;8.63;;;1.20;;
68229;SDS011;55048;52.220;5.160;2023-05-19T10:08:02;6.43;;;1.17;;
68229;SDS011;55048;52.220;5.160;2023-05-19T10:10:31;10.15;;;1.23;;
68229;SDS011;55048;52.220;5.160;2023-05-19T10:12:57;8.30;;;1.23;;
68229;SDS011;55048;52.220;5.160;2023-05-19T10:15:23;5.15;;;1.23;;
68229;SDS011;55048;52.220;5.160;2023-05-19T10:17:49;4.13;;;1.02;;
68229;SDS011;55048;52.220;5.160;2023-05-19T10:20:15;5.43;;;1.10;;
68229;SDS011;55048;52.220;5.160;2023-05-19T10:22:42;3.00;;;0.93;;
68229;SDS011;55048;52.220;5.160;2023-05-19T10:25:09;5.50;;;1.20;;
68229;SDS011;55048;52.220;5.160;2023-05-19T10:27:41;4.75;;;1.05;;
68229;SDS011;55048;52.220;5.160;2023-05-19T10:30:14;4.82;;;1.00;;
68229;SDS011;55048;52.220;5.160;2023-05-19T10:32:43;3.50;;;0.93;;
68229;SDS011;55048;52.220;5.160;2023-05-19T10:46:29;8.57;;;1.08;;
68229;SDS011;55048;52.220;5.160;2023-05-19T10:48:55;9.40;;;1.30;;
68229;SDS011;55048;52.220;5.160;2023-05-19T10:51:29;4.15;;;1.00;;
68229;SDS011;55048;52.220;5.160;2023-05-19T10:53:55;7.13;;;1.00;;
68229;SDS011;55048;52.220;5.160;2023-05-19T10:56:26;5.53;;;0.90;;
68229;SDS011;55048;52.220;5.160;2023-05-19T10:58:59;4.63;;;1.00;;
68229;SDS011;55048;52.220;5.160;2023-05-19T11:01:29;3.55;;;1.17;;
68229;SDS011;55048;52.220;5.160;2023-05-19T11:03:58;6.13;;;0.90;;
68229;SDS011;55048;52.220;5.160;2023-05-19T11:06:29;4.32;;;1.17;;
68229;SDS011;55048;52.220;5.160;2023-05-19T11:09:00;4.22;;;0.95;;
68229;SDS011;55048;52.220;5.160;2023-05-19T11:14:13;7.93;;;1.10;;
68229;SDS011;55048;52.220;5.160;2023-05-19T11:16:47;6.25;;;1.00;;
68229;SDS011;55048;52.220;5.160;2023-05-19T11:19:30;6.15;;;1.13;;
68229;SDS011;55048;52.220;5.160;2023-05-19T11:24:56;7.00;;;1.10;;
68229;SDS011;55048;52.220;5.160;2023-05-19T11:30:01;7.82;;;1.30;;
68229;SDS011;55048;52.220;5.160;2023-05-19T11:32:35;6.90;;;1.20;;
68229;SDS011;55048;52.220;5.160;2023-05-19T11:35:06;5.68;;;0.90;;
68229;SDS011;55048;52.220;5.160;2023-05-19T11:37:32;10.10;;;1.10;;
68229;SDS011;55048;52.220;5.160;2023-05-19T11:40:02;8.18;;;1.17;;
68229;SDS011;55048;52.220;5.160;2023-05-19T11:42:31;6.60;;;1.20;;
68229;SDS011;55048;52.220;5.160;2023-05-19T11:44:58;3.35;;;1.00;;
68229;SDS011;55048;52.220;5.160;2023-05-19T11:47:23;11.57;;;1.10;;
68229;SDS011;55048;52.220;5.160;2023-05-19T11:49:52;4.90;;;1.10;;
68229;SDS011;55048;52.220;5.160;2023-05-19T11:52:24;6.13;;;1.10;;
68229;SDS011;55048;52.220;5.160;2023-05-19T11:54:50;4.95;;;1.20;;
68229;SDS011;55048;52.220;5.160;2023-05-19T11:57:16;7.22;;;1.02;;
68229;SDS011;55048;52.220;5.160;2023-05-19T11:59:42;7.18;;;1.17;;
68229;SDS011;55048;52.220;5.160;2023-05-19T12:04:44;5.30;;;1.17;;
68229;SDS011;55048;52.220;5.160;2023-05-19T12:07:10;8.90;;;1.63;;
68229;SDS011;55048;52.220;5.160;2023-05-19T12:09:37;5.85;;;1.10;;
68229;SDS011;55048;52.220;5.160;2023-05-19T12:12:03;5.20;;;1.10;;
68229;SDS011;55048;52.220;5.160;2023-05-19T12:14:29;4.88;;;1.20;;
68229;SDS011;55048;52.220;5.160;2023-05-19T12:16:55;5.00;;;1.13;;
68229;SDS011;55048;52.220;5.160;2023-05-19T12:19:22;6.95;;;1.45;;
68229;SDS011;55048;52.220;5.160;2023-05-19T12:21:50;10.35;;;1.40;;
68229;SDS011;55048;52.220;5.160;2023-05-19T12:24:17;9.10;;;1.40;;
68229;SDS011;55048;52.220;5.160;2023-05-19T12:26:44;5.10;;;1.00;;
68229;SDS011;55048;52.220;5.160;2023-05-19T12:29:09;5.80;;;1.30;;
68229;SDS011;55048;52.220;5.160;2023-05-19T12:31:37;5.00;;;1.27;;
68229;SDS011;55048;52.220;5.160;2023-05-19T12:34:03;5.72;;;1.20;;
68229;SDS011;55048;52.220;5.160;2023-05-19T12:36:28;6.43;;;1.20;;
68229;SDS011;55048;52.220;5.160;2023-05-19T12:38:56;8.57;;;1.02;;
68229;SDS011;55048;52.220;5.160;2023-05-19T12:41:25;3.60;;;1.02;;
68229;SDS011;55048;52.220;5.160;2023-05-19T12:43:51;7.07;;;1.40;;
68229;SDS011;55048;52.220;5.160;2023-05-19T12:46:18;7.25;;;1.58;;
68229;SDS011;55048;52.220;5.160;2023-05-19T12:48:45;7.68;;;1.30;;
68229;SDS011;55048;52.220;5.160;2023-05-19T12:51:17;5.05;;;1.20;;
68229;SDS011;55048;52.220;5.160;2023-05-19T12:53:44;7.40;;;1.50;;
68229;SDS011;55048;52.220;5.160;2023-05-19T12:56:11;8.35;;;1.27;;
68229;SDS011;55048;52.220;5.160;2023-05-19T12:58:40;42.10;;;3.60;;
68229;SDS011;55048;52.220;5.160;2023-05-19T13:01:06;6.57;;;1.13;;
68229;SDS011;55048;52.220;5.160;2023-05-19T13:03:39;3.03;;;1.27;;
68229;SDS011;55048;52.220;5.160;2023-05-19T13:06:08;9.93;;;1.47;;
68229;SDS011;55048;52.220;5.160;2023-05-19T13:08:35;8.40;;;1.17;;
68229;SDS011;55048;52.220;5.160;2023-05-19T13:11:01;5.30;;;1.33;;
68229;SDS011;55048;52.220;5.160;2023-05-19T13:13:26;9.35;;;1.40;;
68229;SDS011;55048;52.220;5.160;2023-05-19T13:15:52;3.22;;;1.10;;
68229;SDS011;55048;52.220;5.160;2023-05-19T13:18:18;9.20;;;1.20;;
68229;SDS011;55048;52.220;5.160;2023-05-19T13:20:43;4.95;;;1.10;;
68229;SDS011;55048;52.220;5.160;2023-05-19T13:23:10;5.22;;;1.10;;
68229;SDS011;55048;52.220;5.160;2023-05-19T13:25:37;5.47;;;1.05;;
68229;SDS011;55048;52.220;5.160;2023-05-19T13:28:03;5.55;;;1.20;;
68229;SDS011;55048;52.220;5.160;2023-05-19T13:30:30;6.32;;;1.00;;
68229;SDS011;55048;52.220;5.160;2023-05-19T13:32:59;3.83;;;0.93;;
68229;SDS011;55048;52.220;5.160;2023-05-19T13:35:25;9.13;;;1.10;;
68229;SDS011;55048;52.220;5.160;2023-05-19T13:37:51;6.10;;;1.20;;
68229;SDS011;55048;52.220;5.160;2023-05-19T13:40:16;5.03;;;1.10;;
68229;SDS011;55048;52.220;5.160;2023-05-19T13:42:42;8.77;;;1.55;;
68229;SDS011;55048;52.220;5.160;2023-05-19T13:45:09;5.72;;;1.25;;
68229;SDS011;55048;52.220;5.160;2023-05-19T13:47:36;3.25;;;1.15;;
68229;SDS011;55048;52.220;5.160;2023-05-19T13:50:05;2.47;;;0.88;;
68229;SDS011;55048;52.220;5.160;2023-05-19T13:52:30;3.80;;;1.10;;
68229;SDS011;55048;52.220;5.160;2023-05-19T13:54:56;8.07;;;1.08;;
68229;SDS011;55048;52.220;5.160;2023-05-19T13:57:22;7.35;;;1.10;;
68229;SDS011;55048;52.220;5.160;2023-05-19T13:59:50;5.88;;;1.30;;
68229;SDS011;55048;52.220;5.160;2023-05-19T14:02:19;4.63;;;1.00;;
68229;SDS011;55048;52.220;5.160;2023-05-19T14:04:45;5.70;;;1.10;;
68229;SDS011;55048;52.220;5.160;2023-05-19T14:07:11;6.78;;;1.35;;
68229;SDS011;55048;52.220;5.160;2023-05-19T14:09:36;7.50;;;1.38;;
68229;SDS011;55048;52.220;5.160;2023-05-19T14:12:02;6.35;;;1.00;;
68229;SDS011;55048;52.220;5.160;2023-05-19T14:14:28;15.85;;;1.20;;
68229;SDS011;55048;52.220;5.160;2023-05-19T14:16:53;5.57;;;0.90;;
68229;SDS011;55048;52.220;5.160;2023-05-19T14:19:19;3.60;;;1.05;;
68229;SDS011;55048;52.220;5.160;2023-05-19T14:21:44;4.53;;;1.00;;
68229;SDS011;55048;52.220;5.160;2023-05-19T14:24:10;5.68;;;1.00;;
68229;SDS011;55048;52.220;5.160;2023-05-19T14:26:35;4.05;;;1.00;;
68229;SDS011;55048;52.220;5.160;2023-05-19T14:29:01;6.22;;;1.10;;
68229;SDS011;55048;52.220;5.160;2023-05-19T14:31:27;4.47;;;0.85;;
68229;SDS011;55048;52.220;5.160;2023-05-19T14:33:52;7.85;;;1.48;;
68229;SDS011;55048;52.220;5.160;2023-05-19T14:36:18;9.82;;;1.02;;
68229;SDS011;55048;52.220;5.160;2023-05-19T14:38:43;6.43;;;1.02;;
68229;SDS011;55048;52.220;5.160;2023-05-19T14:41:09;7.55;;;1.20;;
68229;SDS011;55048;52.220;5.160;2023-05-19T14:43:34;8.35;;;1.40;;
68229;SDS011;55048;52.220;5.160;2023-05-19T14:46:00;6.95;;;1.05;;
68229;SDS011;55048;52.220;5.160;2023-05-19T14:48:25;5.60;;;1.00;;
68229;SDS011;55048;52.220;5.160;2023-05-19T14:50:51;2.65;;;0.85;;
68229;SDS011;55048;52.220;5.160;2023-05-19T14:53:17;6.95;;;1.13;;
68229;SDS011;55048;52.220;5.160;2023-05-19T14:55:42;7.90;;;1.20;;
68229;SDS011;55048;52.220;5.160;2023-05-19T14:58:08;4.75;;;0.95;;
68229;SDS011;55048;52.220;5.160;2023-05-19T15:00:34;6.03;;;0.95;;
68229;SDS011;55048;52.220;5.160;2023-05-19T15:02:59;9.80;;;1.30;;
68229;SDS011;55048;52.220;5.160;2023-05-19T15:05:25;3.35;;;0.90;;
68229;SDS011;55048;52.220;5.160;2023-05-19T15:07:50;4.15;;;0.90;;
68229;SDS011;55048;52.220;5.160;2023-05-19T15:10:16;4.22;;;1.08;;
68229;SDS011;55048;52.220;5.160;2023-05-19T15:12:44;5.82;;;1.00;;
68229;SDS011;55048;52.220;5.160;2023-05-19T15:15:10;3.28;;;1.00;;
68229;SDS011;55048;52.220;5.160;2023-05-19T15:17:36;7.65;;;1.15;;
68229;SDS011;55048;52.220;5.160;2023-05-19T15:20:01;4.93;;;1.00;;
68229;SDS011;55048;52.220;5.160;2023-05-19T15:22:27;5.80;;;1.02;;
68229;SDS011;55048;52.220;5.160;2023-05-19T15:24:52;7.43;;;1.10;;
68229;SDS011;55048;52.220;5.160;2023-05-19T15:27:17;4.07;;;0.90;;
68229;SDS011;55048;52.220;5.160;2023-05-19T15:29:44;4.43;;;0.95;;
68229;SDS011;55048;52.220;5.160;2023-05-19T15:32:10;3.45;;;1.00;;
68229;SDS011;55048;52.220;5.160;2023-05-19T15:34:35;5.80;;;1.00;;
68229;SDS011;55048;52.220;5.160;2023-05-19T15:37:00;6.78;;;0.93;;
68229;SDS011;55048;52.220;5.160;2023-05-19T15:39:26;4.70;;;1.00;;